sensor_id;sensor_type;location;lat;lon;timestamp;temperature;humidity
19342;DHT22;9807;48.258;12.690;2023-08-12T00:00:00;20.70;99.90
19342;DHT22;9807;48.258;12.690;2023-08-12T00:02:36;20.60;99.90
19342;DHT22;9807;48.258;12.690;2023-08-12T00:05:01;20.60;99.90
19342;DHT22;9807;48.258;12.690;2023-08-12T00:07:27;20.60;99.90
19342;DHT22;9807;48.258;12.690;2023-08-12T00:09:53;20.60;99.90
19342;DHT22;9807;48.258;12.690;2023-08-12T00:12:24;20.60;99.90
19342;DHT22;9807;48.258;12.690;2023-08-12T00:14:49;20.50;99.90
19342;DHT22;9807;48.258;12.690;2023-08-12T00:17:15;20.50;99.90
19342;DHT22;9807;48.258;12.690;2023-08-12T00:19:41;20.50;99.90
19342;DHT22;9807;48.258;12.690;2023-08-12T00:22:06;20.50;99.90
19342;DHT22;9807;48.258;12.690;2023-08-12T00:24:32;20.40;99.90
19342;DHT22;9807;48.258;12.690;2023-08-12T00:26:57;20.40;99.90
19342;DHT22;9807;48.258;12.690;2023-08-12T00:29:24;20.40;99.90
19342;DHT22;9807;48.258;12.690;2023-08-12T00:31:50;20.40;99.90
19342;DHT22;9807;48.258;12.690;2023-08-12T00:34:18;20.40;99.90
19342;DHT22;9807;48.258;12.690;2023-08-12T00:36:46;20.30;99.90
19342;DHT22;9807;48.258;12.690;2023-08-12T00:39:12;20.30;99.90
19342;DHT22;9807;48.258;12.690;2023-08-12T00:41:38;20.20;99.90
19342;DHT22;9807;48.258;12.690;2023-08-12T00:44:04;20.20;99.90
19342;DHT22;9807;48.258;12.690;2023-08-12T00:46:30;20.20;99.90
19342;DHT22;9807;48.258;12.690;2023-08-12T00:48:56;20.20;99.90
19342;DHT22;9807;48.258;12.690;2023-08-12T00:51:25;20.20;99.90
19342;DHT22;9807;48.258;12.690;2023-08-12T00:53:50;20.20;99.90
19342;DHT22;9807;48.258;12.690;2023-08-12T00:56:17;20.10;99.90
19342;DHT22;9807;48.258;12.690;2023-08-12T00:58:43;20.10;99.90
19342;DHT22;9807;48.258;12.690;2023-08-12T01:01:10;20.10;99.90
19342;DHT22;9807;48.258;12.690;2023-08-12T01:03:37;20.10;99.90
19342;DHT22;9807;48.258;12.690;2023-08-12T01:06:03;20.10;99.90
19342;DHT22;9807;48.258;12.690;2023-08-12T01:08:31;20.10;99.90
19342;DHT22;9807;48.258;12.690;2023-08-12T01:11:03;20.10;99.90
19342;DHT22;9807;48.258;12.690;2023-08-12T01:13:46;20.00;99.90
19342;DHT22;9807;48.258;12.690;2023-08-12T01:19:40;20.00;99.90
19342;DHT22;9807;48.258;12.690;2023-08-12T01:22:11;19.90;99.90
19342;DHT22;9807;48.258;12.690;2023-08-12T01:24:42;19.90;99.90
19342;DHT22;9807;48.258;12.690;2023-08-12T01:27:09;19.90;99.90
19342;DHT22;9807;48.258;12.690;2023-08-12T01:29:42;19.90;99.90
19342;DHT22;9807;48.258;12.690;2023-08-12T01:37:32;19.80;99.90
19342;DHT22;9807;48.258;12.690;2023-08-12T01:40:01;19.80;99.90
19342;DHT22;9807;48.258;12.690;2023-08-12T01:42:30;19.80;99.90
19342;DHT22;9807;48.258;12.690;2023-08-12T01:44:56;19.80;99.90
19342;DHT22;9807;48.258;12.690;2023-08-12T01:47:22;19.80;99.90
19342;DHT22;9807;48.258;12.690;2023-08-12T01:49:52;19.70;99.90
19342;DHT22;9807;48.258;12.690;2023-08-12T01:52:17;19.70;99.90
19342;DHT22;9807;48.258;12.690;2023-08-12T01:54:43;19.70;99.90
19342;DHT22;9807;48.258;12.690;2023-08-12T01:57:09;19.70;99.90
19342;DHT22;9807;48.258;12.690;2023-08-12T01:59:35;19.70;99.90
19342;DHT22;9807;48.258;12.690;2023-08-12T02:02:01;19.60;99.90
19342;DHT22;9807;48.258;12.690;2023-08-12T02:04:27;19.60;99.90
19342;DHT22;9807;48.258;12.690;2023-08-12T02:06:53;19.60;99.90
19342;DHT22;9807;48.258;12.690;2023-08-12T02:09:19;19.60;99.90
19342;DHT22;9807;48.258;12.690;2023-08-12T02:11:45;19.50;99.90
19342;DHT22;9807;48.258;12.690;2023-08-12T02:14:11;19.50;99.90
19342;DHT22;9807;48.258;12.690;2023-08-12T02:16:37;19.50;99.90
19342;DHT22;9807;48.258;12.690;2023-08-12T02:19:02;19.50;99.90
19342;DHT22;9807;48.258;12.690;2023-08-12T02:21:28;19.50;99.90
19342;DHT22;9807;48.258;12.690;2023-08-12T02:23:54;19.50;99.90
19342;DHT22;9807;48.258;12.690;2023-08-12T02:26:20;19.40;99.90
19342;DHT22;9807;48.258;12.690;2023-08-12T02:28:45;19.40;99.90
19342;DHT22;9807;48.258;12.690;2023-08-12T02:31:15;19.40;99.90
19342;DHT22;9807;48.258;12.690;2023-08-12T02:33:41;19.40;99.90
19342;DHT22;9807;48.258;12.690;2023-08-12T02:36:07;19.40;99.90
19342;DHT22;9807;48.258;12.690;2023-08-12T02:38:33;19.30;99.90
19342;DHT22;9807;48.258;12.690;2023-08-12T02:40:58;19.30;99.90
19342;DHT22;9807;48.258;12.690;2023-08-12T02:43:24;19.30;99.90
19342;DHT22;9807;48.258;12.690;2023-08-12T02:45:50;19.30;99.90
19342;DHT22;9807;48.258;12.690;2023-08-12T02:48:16;19.30;99.90
19342;DHT22;9807;48.258;12.690;2023-08-12T02:50:44;19.20;99.90
19342;DHT22;9807;48.258;12.690;2023-08-12T02:53:09;19.10;99.90
19342;DHT22;9807;48.258;12.690;2023-08-12T02:55:35;19.10;99.90
19342;DHT22;9807;48.258;12.690;2023-08-12T02:58:03;19.10;99.90
19342;DHT22;9807;48.258;12.690;2023-08-12T03:00:29;19.10;99.90
19342;DHT22;9807;48.258;12.690;2023-08-12T03:02:54;19.10;99.90
19342;DHT22;9807;48.258;12.690;2023-08-12T03:05:21;19.10;99.90
19342;DHT22;9807;48.258;12.690;2023-08-12T03:07:47;19.10;99.90
19342;DHT22;9807;48.258;12.690;2023-08-12T03:10:13;19.10;99.90
19342;DHT22;9807;48.258;12.690;2023-08-12T03:12:39;19.10;99.90
19342;DHT22;9807;48.258;12.690;2023-08-12T03:15:11;19.10;99.90
19342;DHT22;9807;48.258;12.690;2023-08-12T03:17:37;19.10;99.90
19342;DHT22;9807;48.258;12.690;2023-08-12T03:20:07;19.10;99.90
19342;DHT22;9807;48.258;12.690;2023-08-12T03:22:35;19.10;99.90
19342;DHT22;9807;48.258;12.690;2023-08-12T03:25:01;19.10;99.90
19342;DHT22;9807;48.258;12.690;2023-08-12T03:27:27;19.00;99.90
19342;DHT22;9807;48.258;12.690;2023-08-12T03:29:52;19.00;99.90
19342;DHT22;9807;48.258;12.690;2023-08-12T03:32:18;19.00;99.90
19342;DHT22;9807;48.258;12.690;2023-08-12T03:34:44;18.90;99.90
19342;DHT22;9807;48.258;12.690;2023-08-12T03:37:09;18.90;99.90
19342;DHT22;9807;48.258;12.690;2023-08-12T03:39:35;19.00;99.90
19342;DHT22;9807;48.258;12.690;2023-08-12T03:42:01;18.90;99.90
19342;DHT22;9807;48.258;12.690;2023-08-12T03:44:26;18.90;99.90
19342;DHT22;9807;48.258;12.690;2023-08-12T03:46:54;18.90;99.90
19342;DHT22;9807;48.258;12.690;2023-08-12T03:49:20;18.90;99.90
19342;DHT22;9807;48.258;12.690;2023-08-12T03:51:45;18.90;99.90
19342;DHT22;9807;48.258;12.690;2023-08-12T03:54:11;18.90;99.90
19342;DHT22;9807;48.258;12.690;2023-08-12T03:56:37;18.90;99.90
19342;DHT22;9807;48.258;12.690;2023-08-12T03:59:02;18.90;99.90
19342;DHT22;9807;48.258;12.690;2023-08-12T04:01:28;18.80;99.90
19342;DHT22;9807;48.258;12.690;2023-08-12T04:03:53;18.80;99.90
19342;DHT22;9807;48.258;12.690;2023-08-12T04:06:19;18.80;99.90
19342;DHT22;9807;48.258;12.690;2023-08-12T04:08:45;18.70;99.90
19342;DHT22;9807;48.258;12.690;2023-08-12T04:11:10;18.40;99.90
19342;DHT22;9807;48.258;12.690;2023-08-12T04:13:36;18.30;99.90
19342;DHT22;9807;48.258;12.690;2023-08-12T04:16:02;18.30;99.90
19342;DHT22;9807;48.258;12.690;2023-08-12T04:18:28;18.40;99.90
19342;DHT22;9807;48.258;12.690;2023-08-12T04:20:53;18.40;99.90
19342;DHT22;9807;48.258;12.690;2023-08-12T04:23:19;18.50;99.90
19342;DHT22;9807;48.258;12.690;2023-08-12T04:25:46;18.50;99.90
19342;DHT22;9807;48.258;12.690;2023-08-12T04:28:13;18.60;99.90
19342;DHT22;9807;48.258;12.690;2023-08-12T04:30:46;18.60;99.90
19342;DHT22;9807;48.258;12.690;2023-08-12T04:33:13;18.70;99.90
19342;DHT22;9807;48.258;12.690;2023-08-12T04:35:40;18.60;99.90
19342;DHT22;9807;48.258;12.690;2023-08-12T04:38:06;18.60;99.90
19342;DHT22;9807;48.258;12.690;2023-08-12T04:40:32;18.60;99.90
19342;DHT22;9807;48.258;12.690;2023-08-12T04:43:00;18.70;99.90
19342;DHT22;9807;48.258;12.690;2023-08-12T04:45:27;18.60;99.90
19342;DHT22;9807;48.258;12.690;2023-08-12T04:47:53;18.60;99.90
19342;DHT22;9807;48.258;12.690;2023-08-12T04:50:19;18.60;99.90
19342;DHT22;9807;48.258;12.690;2023-08-12T04:52:45;18.70;99.90
19342;DHT22;9807;48.258;12.690;2023-08-12T04:55:11;18.70;99.90
19342;DHT22;9807;48.258;12.690;2023-08-12T04:57:37;18.70;99.90
19342;DHT22;9807;48.258;12.690;2023-08-12T05:00:04;18.70;99.90
19342;DHT22;9807;48.258;12.690;2023-08-12T05:02:31;18.70;99.90
19342;DHT22;9807;48.258;12.690;2023-08-12T05:04:56;18.70;99.90
19342;DHT22;9807;48.258;12.690;2023-08-12T05:07:25;18.70;99.90
19342;DHT22;9807;48.258;12.690;2023-08-12T05:09:50;18.70;99.90
19342;DHT22;9807;48.258;12.690;2023-08-12T05:12:16;18.70;99.90
19342;DHT22;9807;48.258;12.690;2023-08-12T05:14:42;18.80;99.90
19342;DHT22;9807;48.258;12.690;2023-08-12T05:17:07;18.80;99.90
19342;DHT22;9807;48.258;12.690;2023-08-12T05:19:34;18.80;99.90
19342;DHT22;9807;48.258;12.690;2023-08-12T05:22:00;18.80;99.90
19342;DHT22;9807;48.258;12.690;2023-08-12T05:24:25;18.60;99.90
19342;DHT22;9807;48.258;12.690;2023-08-12T05:26:51;18.50;99.90
19342;DHT22;9807;48.258;12.690;2023-08-12T05:29:16;18.60;99.90
19342;DHT22;9807;48.258;12.690;2023-08-12T05:31:42;18.60;99.90
19342;DHT22;9807;48.258;12.690;2023-08-12T05:34:08;18.60;99.90
19342;DHT22;9807;48.258;12.690;2023-08-12T05:36:33;18.60;99.90
19342;DHT22;9807;48.258;12.690;2023-08-12T05:39:00;18.40;99.90
19342;DHT22;9807;48.258;12.690;2023-08-12T05:41:25;18.10;99.90
19342;DHT22;9807;48.258;12.690;2023-08-12T05:43:51;18.10;99.90
19342;DHT22;9807;48.258;12.690;2023-08-12T05:46:17;18.20;99.90
19342;DHT22;9807;48.258;12.690;2023-08-12T05:48:42;18.50;99.90
19342;DHT22;9807;48.258;12.690;2023-08-12T05:51:08;18.90;99.90
19342;DHT22;9807;48.258;12.690;2023-08-12T05:53:34;19.20;99.90
19342;DHT22;9807;48.258;12.690;2023-08-12T05:56:00;19.10;99.90
19342;DHT22;9807;48.258;12.690;2023-08-12T05:58:25;18.70;99.90
19342;DHT22;9807;48.258;12.690;2023-08-12T06:00:51;18.80;99.90
19342;DHT22;9807;48.258;12.690;2023-08-12T06:03:17;19.20;99.90
19342;DHT22;9807;48.258;12.690;2023-08-12T06:05:45;19.60;99.90
19342;DHT22;9807;48.258;12.690;2023-08-12T06:08:12;19.90;99.90
19342;DHT22;9807;48.258;12.690;2023-08-12T06:10:37;20.10;99.90
19342;DHT22;9807;48.258;12.690;2023-08-12T06:13:03;20.40;99.90
19342;DHT22;9807;48.258;12.690;2023-08-12T06:15:29;20.70;99.90
19342;DHT22;9807;48.258;12.690;2023-08-12T06:17:58;21.10;99.90
19342;DHT22;9807;48.258;12.690;2023-08-12T06:20:24;21.30;99.90
19342;DHT22;9807;48.258;12.690;2023-08-12T06:22:50;21.50;99.90
19342;DHT22;9807;48.258;12.690;2023-08-12T06:25:17;21.60;99.90
19342;DHT22;9807;48.258;12.690;2023-08-12T06:27:43;21.70;99.90
19342;DHT22;9807;48.258;12.690;2023-08-12T06:30:09;21.90;99.90
19342;DHT22;9807;48.258;12.690;2023-08-12T06:32:35;22.10;99.90
19342;DHT22;9807;48.258;12.690;2023-08-12T06:35:04;22.50;99.90
19342;DHT22;9807;48.258;12.690;2023-08-12T06:37:30;22.70;99.90
19342;DHT22;9807;48.258;12.690;2023-08-12T06:39:56;22.50;99.90
19342;DHT22;9807;48.258;12.690;2023-08-12T06:42:27;22.50;99.90
19342;DHT22;9807;48.258;12.690;2023-08-12T06:44:58;22.90;99.90
19342;DHT22;9807;48.258;12.690;2023-08-12T06:47:27;23.10;99.90
19342;DHT22;9807;48.258;12.690;2023-08-12T06:49:54;23.50;99.90
19342;DHT22;9807;48.258;12.690;2023-08-12T06:52:20;23.90;99.90
19342;DHT22;9807;48.258;12.690;2023-08-12T06:54:46;24.00;99.90
19342;DHT22;9807;48.258;12.690;2023-08-12T06:57:11;23.90;99.90
19342;DHT22;9807;48.258;12.690;2023-08-12T06:59:38;24.10;99.90
19342;DHT22;9807;48.258;12.690;2023-08-12T07:02:03;24.40;99.90
19342;DHT22;9807;48.258;12.690;2023-08-12T07:04:29;24.80;99.90
19342;DHT22;9807;48.258;12.690;2023-08-12T07:06:55;24.80;99.90
19342;DHT22;9807;48.258;12.690;2023-08-12T07:09:24;24.70;99.90
19342;DHT22;9807;48.258;12.690;2023-08-12T07:11:49;24.90;99.90
19342;DHT22;9807;48.258;12.690;2023-08-12T07:14:15;25.30;99.90
19342;DHT22;9807;48.258;12.690;2023-08-12T07:16:41;25.50;99.90
19342;DHT22;9807;48.258;12.690;2023-08-12T07:19:07;25.90;99.90
19342;DHT22;9807;48.258;12.690;2023-08-12T07:21:33;25.90;99.90
19342;DHT22;9807;48.258;12.690;2023-08-12T07:23:58;26.00;99.90
19342;DHT22;9807;48.258;12.690;2023-08-12T07:26:24;25.70;99.90
19342;DHT22;9807;48.258;12.690;2023-08-12T07:28:49;25.30;99.90
19342;DHT22;9807;48.258;12.690;2023-08-12T07:31:15;24.40;99.90
19342;DHT22;9807;48.258;12.690;2023-08-12T07:33:41;24.00;99.90
19342;DHT22;9807;48.258;12.690;2023-08-12T07:36:07;24.00;99.90
19342;DHT22;9807;48.258;12.690;2023-08-12T07:38:32;24.40;99.90
19342;DHT22;9807;48.258;12.690;2023-08-12T07:40:58;24.90;99.90
19342;DHT22;9807;48.258;12.690;2023-08-12T07:43:24;25.40;99.90
19342;DHT22;9807;48.258;12.690;2023-08-12T07:45:53;25.30;99.90
19342;DHT22;9807;48.258;12.690;2023-08-12T07:48:22;25.80;99.90
19342;DHT22;9807;48.258;12.690;2023-08-12T07:50:57;26.50;99.90
19342;DHT22;9807;48.258;12.690;2023-08-12T07:53:23;27.00;99.90
19342;DHT22;9807;48.258;12.690;2023-08-12T07:55:49;26.80;99.90
19342;DHT22;9807;48.258;12.690;2023-08-12T07:58:15;27.20;99.90
19342;DHT22;9807;48.258;12.690;2023-08-12T08:00:40;27.40;99.90
19342;DHT22;9807;48.258;12.690;2023-08-12T08:03:06;27.60;99.90
19342;DHT22;9807;48.258;12.690;2023-08-12T08:05:32;27.20;99.90
19342;DHT22;9807;48.258;12.690;2023-08-12T08:07:57;27.10;99.90
19342;DHT22;9807;48.258;12.690;2023-08-12T08:10:24;27.70;99.90
19342;DHT22;9807;48.258;12.690;2023-08-12T08:12:49;28.20;99.90
19342;DHT22;9807;48.258;12.690;2023-08-12T08:15:15;28.40;99.90
19342;DHT22;9807;48.258;12.690;2023-08-12T08:17:41;28.40;99.90
19342;DHT22;9807;48.258;12.690;2023-08-12T08:20:07;27.50;99.90
19342;DHT22;9807;48.258;12.690;2023-08-12T08:22:33;28.00;99.90
19342;DHT22;9807;48.258;12.690;2023-08-12T08:24:59;28.20;99.90
19342;DHT22;9807;48.258;12.690;2023-08-12T08:27:25;27.30;99.90
19342;DHT22;9807;48.258;12.690;2023-08-12T08:29:51;27.20;99.90
19342;DHT22;9807;48.258;12.690;2023-08-12T08:32:16;27.90;99.90
19342;DHT22;9807;48.258;12.690;2023-08-12T08:34:43;28.10;99.90
19342;DHT22;9807;48.258;12.690;2023-08-12T08:37:08;28.40;99.90
19342;DHT22;9807;48.258;12.690;2023-08-12T08:39:34;27.90;99.90
19342;DHT22;9807;48.258;12.690;2023-08-12T08:41:59;28.20;99.90
19342;DHT22;9807;48.258;12.690;2023-08-12T08:44:29;27.30;99.90
19342;DHT22;9807;48.258;12.690;2023-08-12T08:46:58;27.70;99.90
19342;DHT22;9807;48.258;12.690;2023-08-12T08:49:25;28.10;99.90
19342;DHT22;9807;48.258;12.690;2023-08-12T08:51:52;28.50;99.90
19342;DHT22;9807;48.258;12.690;2023-08-12T08:54:19;28.70;99.90
19342;DHT22;9807;48.258;12.690;2023-08-12T08:56:45;28.80;99.90
19342;DHT22;9807;48.258;12.690;2023-08-12T08:59:13;27.90;99.90
19342;DHT22;9807;48.258;12.690;2023-08-12T09:01:39;27.80;99.90
19342;DHT22;9807;48.258;12.690;2023-08-12T09:04:06;28.00;99.90
19342;DHT22;9807;48.258;12.690;2023-08-12T09:06:34;28.30;99.90
19342;DHT22;9807;48.258;12.690;2023-08-12T09:09:01;28.70;99.90
19342;DHT22;9807;48.258;12.690;2023-08-12T09:11:28;29.10;99.90
19342;DHT22;9807;48.258;12.690;2023-08-12T09:13:55;29.30;99.90
19342;DHT22;9807;48.258;12.690;2023-08-12T09:16:21;29.20;99.90
19342;DHT22;9807;48.258;12.690;2023-08-12T09:18:55;29.00;99.90
19342;DHT22;9807;48.258;12.690;2023-08-12T09:21:24;28.30;99.90
19342;DHT22;9807;48.258;12.690;2023-08-12T09:23:49;27.50;99.90
19342;DHT22;9807;48.258;12.690;2023-08-12T09:26:19;27.20;99.90
19342;DHT22;9807;48.258;12.690;2023-08-12T09:28:45;26.80;99.90
19342;DHT22;9807;48.258;12.690;2023-08-12T09:31:31;26.80;99.90
19342;DHT22;9807;48.258;12.690;2023-08-12T09:33:59;27.20;99.90
19342;DHT22;9807;48.258;12.690;2023-08-12T09:36:28;27.50;99.90
19342;DHT22;9807;48.258;12.690;2023-08-12T09:38:56;27.70;99.90
19342;DHT22;9807;48.258;12.690;2023-08-12T09:41:22;27.40;99.90
19342;DHT22;9807;48.258;12.690;2023-08-12T09:43:51;27.50;99.90
19342;DHT22;9807;48.258;12.690;2023-08-12T09:46:18;27.80;99.90
19342;DHT22;9807;48.258;12.690;2023-08-12T09:48:46;27.50;99.90
19342;DHT22;9807;48.258;12.690;2023-08-12T09:51:13;27.30;99.90
19342;DHT22;9807;48.258;12.690;2023-08-12T09:53:40;27.10;99.90
19342;DHT22;9807;48.258;12.690;2023-08-12T09:56:07;27.00;99.90
19342;DHT22;9807;48.258;12.690;2023-08-12T09:58:35;27.40;99.90
19342;DHT22;9807;48.258;12.690;2023-08-12T10:01:03;27.80;99.90
19342;DHT22;9807;48.258;12.690;2023-08-12T10:03:29;28.10;99.90
19342;DHT22;9807;48.258;12.690;2023-08-12T10:05:56;28.10;99.90
19342;DHT22;9807;48.258;12.690;2023-08-12T10:08:23;28.00;99.90
19342;DHT22;9807;48.258;12.690;2023-08-12T10:10:48;28.20;99.90
19342;DHT22;9807;48.258;12.690;2023-08-12T10:13:14;28.40;99.90
19342;DHT22;9807;48.258;12.690;2023-08-12T10:15:41;28.20;99.90
19342;DHT22;9807;48.258;12.690;2023-08-12T10:18:07;28.10;99.90
19342;DHT22;9807;48.258;12.690;2023-08-12T10:20:35;28.20;99.90
19342;DHT22;9807;48.258;12.690;2023-08-12T10:23:02;28.30;99.90
19342;DHT22;9807;48.258;12.690;2023-08-12T10:25:32;28.50;99.90
19342;DHT22;9807;48.258;12.690;2023-08-12T10:28:00;28.70;99.90
19342;DHT22;9807;48.258;12.690;2023-08-12T10:30:29;28.60;99.90
19342;DHT22;9807;48.258;12.690;2023-08-12T10:32:55;28.30;99.90
19342;DHT22;9807;48.258;12.690;2023-08-12T10:35:23;28.00;99.90
19342;DHT22;9807;48.258;12.690;2023-08-12T10:38:05;27.80;99.90
19342;DHT22;9807;48.258;12.690;2023-08-12T10:40:31;27.80;99.90
19342;DHT22;9807;48.258;12.690;2023-08-12T10:42:57;27.90;99.90
19342;DHT22;9807;48.258;12.690;2023-08-12T10:45:22;28.00;99.90
19342;DHT22;9807;48.258;12.690;2023-08-12T10:48:09;28.00;99.90
19342;DHT22;9807;48.258;12.690;2023-08-12T10:50:35;28.10;99.90
19342;DHT22;9807;48.258;12.690;2023-08-12T10:55:48;28.20;99.90
19342;DHT22;9807;48.258;12.690;2023-08-12T10:58:34;28.40;99.90
19342;DHT22;9807;48.258;12.690;2023-08-12T11:01:00;28.60;99.90
19342;DHT22;9807;48.258;12.690;2023-08-12T11:03:30;28.90;99.90
19342;DHT22;9807;48.258;12.690;2023-08-12T11:05:59;29.20;99.90
19342;DHT22;9807;48.258;12.690;2023-08-12T11:08:26;29.40;99.90
19342;DHT22;9807;48.258;12.690;2023-08-12T11:10:54;29.50;99.90
19342;DHT22;9807;48.258;12.690;2023-08-12T11:13:22;29.60;99.90
19342;DHT22;9807;48.258;12.690;2023-08-12T11:15:48;29.80;99.90
19342;DHT22;9807;48.258;12.690;2023-08-12T11:18:20;29.90;99.90
19342;DHT22;9807;48.258;12.690;2023-08-12T11:20:49;30.00;99.90
19342;DHT22;9807;48.258;12.690;2023-08-12T11:23:16;30.00;99.90
19342;DHT22;9807;48.258;12.690;2023-08-12T11:25:43;30.10;99.90
19342;DHT22;9807;48.258;12.690;2023-08-12T11:28:10;30.10;99.90
19342;DHT22;9807;48.258;12.690;2023-08-12T11:30:36;30.10;99.90
19342;DHT22;9807;48.258;12.690;2023-08-12T11:33:02;30.20;99.90
19342;DHT22;9807;48.258;12.690;2023-08-12T11:35:29;30.30;99.90
19342;DHT22;9807;48.258;12.690;2023-08-12T11:37:56;30.40;99.90
19342;DHT22;9807;48.258;12.690;2023-08-12T11:40:24;30.40;99.90
19342;DHT22;9807;48.258;12.690;2023-08-12T11:42:51;30.50;99.90
19342;DHT22;9807;48.258;12.690;2023-08-12T11:45:23;30.60;99.90
19342;DHT22;9807;48.258;12.690;2023-08-12T11:47:48;30.70;99.90
19342;DHT22;9807;48.258;12.690;2023-08-12T11:50:25;30.90;99.90
19342;DHT22;9807;48.258;12.690;2023-08-12T11:52:53;31.00;99.90
19342;DHT22;9807;48.258;12.690;2023-08-12T11:55:19;31.00;99.90
19342;DHT22;9807;48.258;12.690;2023-08-12T11:57:45;31.20;99.90
19342;DHT22;9807;48.258;12.690;2023-08-12T12:00:12;31.30;99.90
19342;DHT22;9807;48.258;12.690;2023-08-12T12:02:56;31.30;99.90
19342;DHT22;9807;48.258;12.690;2023-08-12T12:05:26;31.40;99.90
19342;DHT22;9807;48.258;12.690;2023-08-12T12:07:52;31.60;99.90
19342;DHT22;9807;48.258;12.690;2023-08-12T12:10:32;31.60;99.90
19342;DHT22;9807;48.258;12.690;2023-08-12T12:12:59;31.70;99.90
19342;DHT22;9807;48.258;12.690;2023-08-12T12:15:25;31.80;99.90
19342;DHT22;9807;48.258;12.690;2023-08-12T12:17:51;31.80;99.90
19342;DHT22;9807;48.258;12.690;2023-08-12T12:20:17;31.80;99.90
19342;DHT22;9807;48.258;12.690;2023-08-12T12:22:44;31.70;99.90
19342;DHT22;9807;48.258;12.690;2023-08-12T12:25:12;31.60;99.90
19342;DHT22;9807;48.258;12.690;2023-08-12T12:27:38;31.30;99.90
19342;DHT22;9807;48.258;12.690;2023-08-12T12:30:12;31.30;99.90
19342;DHT22;9807;48.258;12.690;2023-08-12T12:32:38;31.30;99.90
19342;DHT22;9807;48.258;12.690;2023-08-12T12:35:04;31.30;99.90
19342;DHT22;9807;48.258;12.690;2023-08-12T12:37:33;31.20;99.90
19342;DHT22;9807;48.258;12.690;2023-08-12T12:39:59;31.10;99.90
19342;DHT22;9807;48.258;12.690;2023-08-12T12:42:34;31.10;99.90
19342;DHT22;9807;48.258;12.690;2023-08-12T12:45:00;31.00;99.90
19342;DHT22;9807;48.258;12.690;2023-08-12T12:47:25;31.00;99.90
19342;DHT22;9807;48.258;12.690;2023-08-12T12:49:51;31.10;99.90
19342;DHT22;9807;48.258;12.690;2023-08-12T12:52:20;31.20;99.90
19342;DHT22;9807;48.258;12.690;2023-08-12T12:54:45;31.20;99.90
19342;DHT22;9807;48.258;12.690;2023-08-12T12:57:11;31.00;99.90
19342;DHT22;9807;48.258;12.690;2023-08-12T12:59:36;30.80;99.90
19342;DHT22;9807;48.258;12.690;2023-08-12T13:02:02;30.70;99.90
19342;DHT22;9807;48.258;12.690;2023-08-12T13:04:28;30.90;99.90
19342;DHT22;9807;48.258;12.690;2023-08-12T13:06:53;31.10;99.90
19342;DHT22;9807;48.258;12.690;2023-08-12T13:09:19;31.30;99.90
19342;DHT22;9807;48.258;12.690;2023-08-12T13:11:45;31.30;99.90
19342;DHT22;9807;48.258;12.690;2023-08-12T13:14:10;31.20;99.90
19342;DHT22;9807;48.258;12.690;2023-08-12T13:16:36;31.00;99.90
19342;DHT22;9807;48.258;12.690;2023-08-12T13:19:02;31.00;99.90
19342;DHT22;9807;48.258;12.690;2023-08-12T13:21:27;31.00;99.90
19342;DHT22;9807;48.258;12.690;2023-08-12T13:23:54;30.60;99.90
19342;DHT22;9807;48.258;12.690;2023-08-12T13:26:20;30.60;99.90
19342;DHT22;9807;48.258;12.690;2023-08-12T13:28:47;30.60;99.90
19342;DHT22;9807;48.258;12.690;2023-08-12T13:31:13;30.60;99.90
19342;DHT22;9807;48.258;12.690;2023-08-12T13:33:39;30.70;99.90
19342;DHT22;9807;48.258;12.690;2023-08-12T13:36:04;30.90;99.90
19342;DHT22;9807;48.258;12.690;2023-08-12T13:38:30;30.80;99.90
19342;DHT22;9807;48.258;12.690;2023-08-12T13:40:56;30.80;99.90
19342;DHT22;9807;48.258;12.690;2023-08-12T13:43:22;30.80;99.90
19342;DHT22;9807;48.258;12.690;2023-08-12T13:45:48;31.00;99.90
19342;DHT22;9807;48.258;12.690;2023-08-12T13:48:14;31.20;99.90
19342;DHT22;9807;48.258;12.690;2023-08-12T13:50:40;31.50;99.90
19342;DHT22;9807;48.258;12.690;2023-08-12T13:53:05;31.60;99.90
19342;DHT22;9807;48.258;12.690;2023-08-12T13:55:31;31.80;99.90
19342;DHT22;9807;48.258;12.690;2023-08-12T13:57:57;31.80;99.90
19342;DHT22;9807;48.258;12.690;2023-08-12T14:00:22;31.80;99.90
19342;DHT22;9807;48.258;12.690;2023-08-12T14:02:50;31.90;99.90
19342;DHT22;9807;48.258;12.690;2023-08-12T14:05:15;32.00;99.90
19342;DHT22;9807;48.258;12.690;2023-08-12T14:07:41;31.90;99.90
19342;DHT22;9807;48.258;12.690;2023-08-12T14:10:07;32.00;99.90
19342;DHT22;9807;48.258;12.690;2023-08-12T14:12:33;32.10;99.90
19342;DHT22;9807;48.258;12.690;2023-08-12T14:14:59;31.90;99.90
19342;DHT22;9807;48.258;12.690;2023-08-12T14:17:25;31.80;99.90
19342;DHT22;9807;48.258;12.690;2023-08-12T14:19:51;31.70;99.90
19342;DHT22;9807;48.258;12.690;2023-08-12T14:22:17;31.80;99.90
19342;DHT22;9807;48.258;12.690;2023-08-12T14:24:43;31.80;99.90
19342;DHT22;9807;48.258;12.690;2023-08-12T14:27:14;31.90;99.90
19342;DHT22;9807;48.258;12.690;2023-08-12T14:29:40;31.80;99.90
19342;DHT22;9807;48.258;12.690;2023-08-12T14:32:05;31.70;99.90
19342;DHT22;9807;48.258;12.690;2023-08-12T14:34:31;31.80;99.90
19342;DHT22;9807;48.258;12.690;2023-08-12T14:36:57;31.90;99.90
19342;DHT22;9807;48.258;12.690;2023-08-12T14:39:22;31.90;99.90
19342;DHT22;9807;48.258;12.690;2023-08-12T14:41:48;32.00;99.90
19342;DHT22;9807;48.258;12.690;2023-08-12T14:44:14;32.10;99.90
19342;DHT22;9807;48.258;12.690;2023-08-12T14:46:43;32.20;99.90
19342;DHT22;9807;48.258;12.690;2023-08-12T14:49:09;32.20;99.90
19342;DHT22;9807;48.258;12.690;2023-08-12T14:51:35;32.10;99.90
19342;DHT22;9807;48.258;12.690;2023-08-12T14:54:01;32.00;99.90
19342;DHT22;9807;48.258;12.690;2023-08-12T14:56:26;31.80;99.90
19342;DHT22;9807;48.258;12.690;2023-08-12T14:58:52;31.80;99.90
19342;DHT22;9807;48.258;12.690;2023-08-12T15:01:17;31.90;99.90
19342;DHT22;9807;48.258;12.690;2023-08-12T15:03:43;31.90;99.90
19342;DHT22;9807;48.258;12.690;2023-08-12T15:06:09;31.70;99.90
19342;DHT22;9807;48.258;12.690;2023-08-12T15:08:34;31.80;99.90
19342;DHT22;9807;48.258;12.690;2023-08-12T15:11:00;31.90;99.90
19342;DHT22;9807;48.258;12.690;2023-08-12T15:13:26;31.90;99.90
19342;DHT22;9807;48.258;12.690;2023-08-12T15:15:52;32.00;99.90
19342;DHT22;9807;48.258;12.690;2023-08-12T15:18:18;32.00;99.90
19342;DHT22;9807;48.258;12.690;2023-08-12T15:20:44;32.20;99.90
19342;DHT22;9807;48.258;12.690;2023-08-12T15:23:10;32.20;99.90
19342;DHT22;9807;48.258;12.690;2023-08-12T15:25:35;32.30;99.90
19342;DHT22;9807;48.258;12.690;2023-08-12T15:28:01;32.30;99.90
19342;DHT22;9807;48.258;12.690;2023-08-12T15:30:28;32.30;99.90
19342;DHT22;9807;48.258;12.690;2023-08-12T15:32:54;32.10;99.90
19342;DHT22;9807;48.258;12.690;2023-08-12T15:35:20;32.10;99.90
19342;DHT22;9807;48.258;12.690;2023-08-12T15:37:45;32.10;99.90